Time;durP1;ratioP1;P1;durP2;ratioP2;P2;SDS_P1;SDS_P2;PMS_P1;PMS_P2;Temp;Humidity;BMP_temperature;BMP_pressure;BME280_temperature;BME280_humidity;BME280_pressure;Samples;Min_cycle;Max_cycle;Signal;HPM_P1;HPM_P2
2022/11/17 00:00:00;;;;;;;9.33;6.63;;;;;;;7.98;100.00;153409.41;4992803;28;20584;-76
2022/11/17 00:02:45;;;;;;;7.10;5.93;;;;;;;7.98;100.00;153409.41;4989330;28;20901;-76
2022/11/17 00:05:30;;;;;;;6.07;5.43;;;;;;;8.03;100.00;153422.31;4993880;28;20561;-76
2022/11/17 00:08:16;;;;;;;6.77;5.63;;;;;;;8.03;100.00;153422.31;4993662;28;20924;-76
2022/11/17 00:11:01;;;;;;;6.93;4.83;;;;;;;8.06;100.00;153430.06;4983267;28;20458;-76
2022/11/17 00:16:51;;;;;;;6.90;5.97;;;;;;;8.20;100.00;153466.28;4974332;28;20465;-76
2022/11/17 00:22:39;;;;;;;6.70;5.30;;;;;;;8.29;100.00;153489.56;4992000;28;20448;-76
2022/11/17 00:25:25;;;;;;;7.00;6.10;;;;;;;8.29;100.00;153489.56;4990178;28;20785;-76
2022/11/17 00:28:10;;;;;;;5.60;4.63;;;;;;;8.21;100.00;153467.50;4991785;28;20543;-76
2022/11/17 00:34:06;;;;;;;6.10;5.27;;;;;;;8.15;100.00;153453.34;4992632;28;20460;-76
2022/11/17 00:36:52;;;;;;;7.20;5.90;;;;;;;8.10;100.00;153440.38;4992290;28;20843;-76
2022/11/17 00:39:38;;;;;;;6.53;5.93;;;;;;;8.07;100.00;153431.38;4989800;28;20770;-76
2022/11/17 00:42:23;;;;;;;7.00;6.30;;;;;;;8.11;100.00;153443.00;4992748;28;20499;-76
2022/11/17 00:45:09;;;;;;;8.30;6.03;;;;;;;8.06;100.00;153428.75;4974893;28;20473;-76
2022/11/17 00:47:54;;;;;;;7.50;6.20;;;;;;;8.03;100.00;153422.31;4987644;28;20488;-76
2022/11/17 00:50:41;;;;;;;6.93;6.27;;;;;;;8.04;100.00;153424.91;4992900;28;20880;-76
2022/11/17 00:53:27;;;;;;;7.00;6.23;;;;;;;8.05;100.00;153427.47;4992095;28;20923;-76
2022/11/17 00:56:13;;;;;;;6.77;5.70;;;;;;;8.04;100.00;153424.91;4983137;28;20441;-76
2022/11/17 00:58:58;;;;;;;7.70;5.50;;;;;;;8.06;100.00;153430.06;4992882;28;20920;-76
2022/11/17 01:01:43;;;;;;;6.03;5.30;;;;;;;8.22;100.00;153471.44;4991643;28;20943;-76
2022/11/17 01:04:28;;;;;;;7.40;5.50;;;;;;;8.29;100.00;153489.56;4989895;28;20476;-76
2022/11/17 01:07:15;;;;;;;5.97;5.37;;;;;;;8.27;100.00;153484.41;4993141;28;20465;-76
2022/11/17 01:10:00;;;;;;;6.63;6.03;;;;;;;8.24;100.00;153476.59;4985606;28;20967;-76
2022/11/17 01:12:46;;;;;;;6.60;5.87;;;;;;;8.25;100.00;153477.88;4975335;28;20940;-76
2022/11/17 01:15:31;;;;;;;7.17;5.80;;;;;;;8.21;100.00;153467.50;4985553;28;20440;-76
2022/11/17 01:18:16;;;;;;;5.73;5.20;;;;;;;8.11;100.00;153443.00;4991073;28;20495;-76
2022/11/17 01:21:07;;;;;;;6.73;6.03;;;;;;;8.20;100.00;153464.97;4973314;28;20470;-76
2022/11/17 01:23:56;;;;;;;6.67;5.93;;;;;;;8.32;100.00;153496.00;4983459;28;20991;-76
2022/11/17 01:26:42;;;;;;;7.37;6.67;;;;;;;8.34;100.00;153501.22;4992540;28;20496;-76
2022/11/17 01:29:28;;;;;;;8.97;6.23;;;;;;;8.33;100.00;153499.91;4989190;28;20472;-76
2022/11/17 01:32:13;;;;;;;8.40;7.50;;;;;;;8.27;100.00;153484.41;4990419;28;20550;-76
2022/11/17 01:34:58;;;;;;;8.40;6.70;;;;;;;8.26;100.00;153480.50;4984705;28;20519;-76
2022/11/17 01:37:43;;;;;;;8.00;7.03;;;;;;;8.36;100.00;153507.69;4990892;28;20798;-76
2022/11/17 01:40:30;;;;;;;10.07;8.43;;;;;;;8.34;100.00;153502.47;4992719;28;20432;-76
2022/11/17 01:43:15;;;;;;;11.70;9.63;;;;;;;8.31;100.00;153494.72;4992547;28;20425;-76
2022/11/17 01:46:01;;;;;;;12.10;10.40;;;;;;;8.27;100.00;153484.41;4991546;28;20500;-76
2022/11/17 01:48:47;;;;;;;10.90;8.70;;;;;;;8.31;100.00;153494.72;4989721;28;20453;-76
2022/11/17 01:51:33;;;;;;;9.30;7.57;;;;;;;8.24;100.00;153476.59;4991129;28;20786;-76
2022/11/17 01:54:21;;;;;;;8.10;6.80;;;;;;;8.31;100.00;153493.47;4977759;28;20425;-76
2022/11/17 01:57:10;;;;;;;6.90;6.20;;;;;;;8.24;100.00;153476.59;4991298;28;20806;-76
2022/11/17 01:59:57;;;;;;;7.00;5.10;;;;;;;8.21;100.00;153468.81;4988377;28;20453;-76
2022/11/17 02:02:43;;;;;;;7.50;5.67;;;;;;;8.13;100.00;153448.13;4992328;28;20428;-76
2022/11/17 02:05:35;;;;;;;7.80;5.50;;;;;;;8.21;100.00;153468.81;4989574;28;20599;-76
2022/11/17 02:08:23;;;;;;;7.70;6.20;;;;;;;8.17;100.00;153458.50;4961336;28;20821;-76
2022/11/17 02:11:13;;;;;;;7.27;6.30;;;;;;;8.16;100.00;153455.91;4976310;28;20546;-76
2022/11/17 02:13:59;;;;;;;7.07;6.17;;;;;;;8.16;100.00;153455.91;4988356;28;20472;-76
2022/11/17 02:16:44;;;;;;;8.97;7.00;;;;;;;8.15;100.00;153453.34;4994760;28;20452;-76
2022/11/17 02:19:33;;;;;;;7.47;5.93;;;;;;;8.15;100.00;153453.34;4995571;28;20488;-76
2022/11/17 02:22:48;;;;;;;6.80;6.10;;;;;;;8.13;100.00;153448.13;4995101;28;20460;-76
2022/11/17 02:25:54;;;;;;;7.47;6.27;;;;;;;8.07;100.00;153432.66;4986640;28;20464;-76
2022/11/17 02:28:41;;;;;;;7.40;6.10;;;;;;;8.05;100.00;153427.47;4991636;28;20808;-76
2022/11/17 02:31:31;;;;;;;8.40;5.70;;;;;;;8.04;100.00;153423.63;4994860;28;20596;-76
2022/11/17 02:34:26;;;;;;;7.10;5.63;;;;;;;7.95;100.00;153401.63;4995853;28;20432;-76
2022/11/17 02:37:18;;;;;;;6.70;5.43;;;;;;;8.00;100.00;153414.53;4994142;28;20561;-76
2022/11/17 02:40:07;;;;;;;5.17;4.70;;;;;;;8.03;100.00;153422.31;4994376;28;20916;-76
2022/11/17 02:46:04;;;;;;;7.00;5.20;;;;;;;8.13;100.00;153448.13;4991956;28;20526;-76
2022/11/17 02:48:52;;;;;;;5.00;4.27;;;;;;;8.13;100.00;153446.88;4993155;28;20499;-76
2022/11/17 02:51:38;;;;;;;5.00;4.50;;;;;;;8.19;100.00;153462.38;4993964;28;20457;-76
2022/11/17 02:54:25;;;;;;;4.77;4.20;;;;;;;8.12;100.00;153445.59;4994242;28;20461;-76
2022/11/17 02:57:28;;;;;;;6.03;4.43;;;;;;;8.17;100.00;153458.50;4992084;28;20448;-76
2022/11/17 03:00:16;;;;;;;6.77;4.60;;;;;;;8.13;100.00;153448.13;4993772;28;20528;-76
2022/11/17 03:03:20;;;;;;;5.73;4.47;;;;;;;8.06;100.00;153430.06;4994009;28;20457;-76
2022/11/17 03:06:13;;;;;;;5.17;4.10;;;;;;;8.09;100.00;153437.81;4990397;28;20443;-76
2022/11/17 03:09:03;;;;;;;6.30;5.20;;;;;;;8.03;100.00;153422.31;4979765;28;20481;-76
2022/11/17 03:11:50;;;;;;;6.07;5.47;;;;;;;7.99;100.00;153412.00;4994258;28;20548;-76
2022/11/17 03:14:42;;;;;;;5.30;4.47;;;;;;;7.99;100.00;153412.00;4984060;28;20429;-76
2022/11/17 03:17:31;;;;;;;5.37;4.87;;;;;;;7.96;100.00;153404.22;4991128;28;20449;-76
2022/11/17 03:20:20;;;;;;;6.60;6.00;;;;;;;7.97;100.00;153406.78;4993983;28;20517;-76
2022/11/17 03:23:08;;;;;;;6.93;6.23;;;;;;;7.94;100.00;153400.34;4993314;28;20525;-76
2022/11/17 03:25:56;;;;;;;9.13;6.53;;;;;;;7.91;100.00;153392.63;4991639;28;20462;-77
2022/11/17 03:28:43;;;;;;;8.53;6.57;;;;;;;7.95;100.00;153401.63;4993680;28;20464;-76
2022/11/17 03:31:30;;;;;;;5.83;5.20;;;;;;;7.98;100.00;153409.41;4992916;28;20791;-76
2022/11/17 03:34:18;;;;;;;5.57;5.07;;;;;;;7.97;100.00;153406.78;4992880;28;20826;-76
2022/11/17 03:37:07;;;;;;;5.60;5.10;;;;;;;8.02;100.00;153419.75;4994655;28;20456;-76
2022/11/17 03:39:54;;;;;;;5.33;4.83;;;;;;;8.02;100.00;153419.75;4993562;28;20460;-76
2022/11/17 03:42:42;;;;;;;4.77;4.20;;;;;;;8.08;100.00;153435.22;4994243;28;20811;-76
2022/11/17 03:45:29;;;;;;;7.17;4.53;;;;;;;8.11;100.00;153441.69;4994431;28;20484;-76
2022/11/17 03:48:20;;;;;;;5.00;4.50;;;;;;;8.14;100.00;153449.44;4993524;28;20490;-76
2022/11/17 03:51:08;;;;;;;5.97;4.57;;;;;;;8.13;100.00;153448.13;4989333;28;20542;-76
2022/11/17 03:53:56;;;;;;;5.30;4.50;;;;;;;8.16;100.00;153455.91;4993215;28;20465;-76
2022/11/17 03:56:45;;;;;;;5.27;4.30;;;;;;;8.21;100.00;153467.50;4974493;28;20784;-77
2022/11/17 03:59:36;;;;;;;5.73;4.50;;;;;;;8.22;100.00;153471.44;4990701;28;20441;-77
2022/11/17 04:02:22;;;;;;;4.70;4.30;;;;;;;8.22;100.00;153470.13;4992641;28;20472;-76
2022/11/17 04:05:08;;;;;;;5.10;4.60;;;;;;;8.20;100.00;153466.28;4987748;28;20669;-76
2022/11/17 04:07:53;;;;;;;4.60;4.10;;;;;;;8.21;100.00;153468.81;4991490;28;20593;-77
2022/11/17 04:16:42;;;;;;;6.30;5.70;;;;;;;8.26;100.00;153480.50;4985157;28;20456;-76
2022/11/17 04:19:28;;;;;;;9.40;8.50;;;;;;;8.35;100.00;153505.06;4977761;28;20944;-76
2022/11/17 04:22:14;;;;;;;7.33;6.60;;;;;;;8.32;100.00;153496.00;4993156;28;20489;-76
2022/11/17 04:24:59;;;;;;;6.57;4.67;;;;;;;8.34;100.00;153502.47;4990162;28;20975;-76
2022/11/17 04:30:47;;;;;;;8.50;5.47;;;;;;;8.35;100.00;153503.78;4971833;28;20437;-76
2022/11/17 04:33:33;;;;;;;5.73;4.60;;;;;;;8.34;100.00;153502.47;4985537;28;20497;-76
2022/11/17 04:36:22;;;;;;;6.37;5.77;;;;;;;8.35;100.00;153503.78;4993652;28;20413;-76
2022/11/17 04:39:07;;;;;;;4.70;4.23;;;;;;;8.40;100.00;153518.00;4992666;28;20469;-77
2022/11/17 04:41:56;;;;;;;5.17;4.40;;;;;;;8.46;100.00;153532.22;4985987;28;20509;-77
2022/11/17 04:44:43;;;;;;;5.57;4.60;;;;;;;8.41;100.00;153520.59;4987010;28;20465;-76
2022/11/17 04:47:28;;;;;;;4.90;4.40;;;;;;;8.41;100.00;153520.59;4984971;28;20458;-76
2022/11/17 04:50:13;;;;;;;7.40;5.10;;;;;;;8.43;100.00;153524.47;4993276;28;20435;-76
2022/11/17 04:52:59;;;;;;;4.80;4.30;;;;;;;8.44;100.00;153528.34;4986365;28;20504;-76
2022/11/17 04:55:44;;;;;;;4.93;3.93;;;;;;;8.46;100.00;153532.22;4976433;28;20403;-76
2022/11/17 04:58:30;;;;;;;4.50;4.10;;;;;;;8.48;100.00;153538.69;4974326;28;20444;-76
2022/11/17 05:01:19;;;;;;;4.80;3.90;;;;;;;8.46;100.00;153533.53;4981850;28;20557;-77
2022/11/17 05:04:07;;;;;;;4.90;4.40;;;;;;;8.45;100.00;153529.63;4989451;28;20515;-76
2022/11/17 05:06:52;;;;;;;4.73;4.20;;;;;;;8.45;100.00;153530.91;4990449;28;20456;-76
2022/11/17 05:09:38;;;;;;;6.03;4.50;;;;;;;8.44;100.00;153528.34;4992672;28;20469;-76
2022/11/17 05:18:26;;;;;;;5.80;4.70;;;;;;;8.42;100.00;153523.16;4993388;28;20421;-76
2022/11/17 05:21:12;;;;;;;7.40;5.00;;;;;;;8.41;100.00;153520.59;4974305;28;20402;-77
2022/11/17 05:23:56;;;;;;;5.10;4.53;;;;;;;8.41;100.00;153520.59;4971439;28;20476;-77
2022/11/17 05:26:43;;;;;;;6.10;4.73;;;;;;;8.41;100.00;153520.59;4991505;28;20920;-77
2022/11/17 05:29:28;;;;;;;9.73;5.50;;;;;;;8.40;100.00;153518.00;4991097;28;20818;-76
2022/11/17 05:32:13;;;;;;;6.53;4.70;;;;;;;8.39;100.00;153514.13;4979189;28;20473;-77
2022/11/17 05:35:00;;;;;;;7.20;5.30;;;;;;;8.43;100.00;153525.75;4946170;28;20441;-77
2022/11/17 05:37:46;;;;;;;5.00;4.50;;;;;;;8.42;100.00;153521.84;4990709;28;20437;-77
2022/11/17 05:40:31;;;;;;;5.90;4.70;;;;;;;8.44;100.00;153527.06;4994190;28;20433;-77
2022/11/17 05:43:16;;;;;;;6.23;4.90;;;;;;;8.48;100.00;153537.38;4977536;28;20405;-77
2022/11/17 05:46:02;;;;;;;4.73;4.00;;;;;;;8.51;100.00;153546.44;4993998;28;20585;-76
2022/11/17 05:48:48;;;;;;;5.87;5.10;;;;;;;8.49;100.00;153539.97;4980811;28;20581;-77
2022/11/17 05:51:37;;;;;;;4.10;3.70;;;;;;;8.49;100.00;153539.97;4977357;28;20406;-77
2022/11/17 05:54:49;;;;;;;6.63;4.17;;;;;;;8.49;100.00;153539.97;4996005;28;20947;-77
2022/11/17 05:57:46;;;;;;;7.10;5.20;;;;;;;8.50;100.00;153542.53;4981159;28;20775;-88
2022/11/17 06:00:32;;;;;;;6.73;6.13;;;;;;;8.48;100.00;153538.69;4981617;28;20428;-86
2022/11/17 06:03:21;;;;;;;7.63;5.47;;;;;;;8.44;100.00;153527.06;4996632;28;20409;-86
2022/11/17 06:06:07;;;;;;;5.10;4.50;;;;;;;8.45;100.00;153529.63;4994184;28;20580;-76
2022/11/17 06:08:54;;;;;;;6.00;4.97;;;;;;;8.43;100.00;153525.75;4994143;28;20491;-76
2022/11/17 06:11:39;;;;;;;5.77;5.17;;;;;;;8.42;100.00;153523.16;4994560;28;20916;-76
2022/11/17 06:14:24;;;;;;;5.07;4.30;;;;;;;8.41;100.00;153519.28;4992390;28;20873;-76
2022/11/17 06:17:12;;;;;;;4.47;4.07;;;;;;;8.38;100.00;153512.84;4991872;28;20460;-76
2022/11/17 06:20:01;;;;;;;5.07;4.60;;;;;;;8.40;100.00;153516.69;4994453;28;20440;-76
2022/11/17 06:22:47;;;;;;;7.73;5.60;;;;;;;8.38;100.00;153512.84;4981137;28;20919;-76
2022/11/17 06:25:35;;;;;;;5.73;5.13;;;;;;;8.40;100.00;153518.00;4978504;28;21332;-76
2022/11/17 06:28:22;;;;;;;4.80;4.30;;;;;;;8.42;100.00;153521.84;4974249;28;20944;-76
2022/11/17 06:31:07;;;;;;;6.47;5.10;;;;;;;8.44;100.00;153528.34;4976655;28;20406;-76
2022/11/17 06:33:53;;;;;;;5.70;4.83;;;;;;;8.46;100.00;153532.22;4994758;28;20476;-76
2022/11/17 06:36:39;;;;;;;5.10;4.60;;;;;;;8.52;100.00;153549.00;4994844;28;20584;-76
2022/11/17 06:39:24;;;;;;;5.87;4.60;;;;;;;8.57;100.00;153560.66;4980351;28;20440;-76
2022/11/17 06:42:11;;;;;;;5.03;3.93;;;;;;;8.53;100.00;153551.59;4992608;28;20475;-76
2022/11/17 06:44:56;;;;;;;5.03;4.40;;;;;;;8.49;100.00;153541.28;4992472;28;20476;-76
2022/11/17 06:47:41;;;;;;;5.90;5.30;;;;;;;8.46;100.00;153533.53;4994297;28;20572;-77
2022/11/17 06:50:26;;;;;;;4.70;4.20;;;;;;;8.46;100.00;153533.53;4993334;28;20465;-76
2022/11/17 06:53:12;;;;;;;4.47;3.90;;;;;;;8.43;100.00;153524.47;4988754;28;20531;-76
2022/11/17 06:56:01;;;;;;;5.20;3.63;;;;;;;8.44;100.00;153528.34;4992456;28;20514;-76
2022/11/17 06:58:48;;;;;;;5.47;3.80;;;;;;;8.51;100.00;153545.13;4975930;28;21055;-76
2022/11/17 07:01:33;;;;;;;4.80;4.27;;;;;;;8.58;100.00;153563.22;4987484;28;21020;-76
2022/11/17 07:04:18;;;;;;;4.03;3.20;;;;;;;8.64;100.00;153577.44;4994279;28;20457;-76
2022/11/17 07:07:04;;;;;;;3.80;2.77;;;;;;;8.67;100.00;153585.22;4978978;28;20481;-76
2022/11/17 07:09:49;;;;;;;3.83;2.40;;;;;;;8.80;100.00;153618.81;4992493;28;20464;-76
2022/11/17 07:12:34;;;;;;;2.53;2.10;;;;;;;8.85;100.00;153633.03;4985031;28;20453;-76
2022/11/17 07:15:21;;;;;;;4.10;2.93;;;;;;;9.01;100.00;153674.44;4992134;28;20939;-76
2022/11/17 07:18:07;;;;;;;8.43;2.67;;;;;;;9.17;100.00;153714.50;4986351;28;20552;-77
2022/11/17 07:20:52;;;;;;;4.17;2.70;;;;;;;9.26;100.00;153737.81;4991354;28;20530;-77
2022/11/17 07:23:39;;;;;;;3.00;2.50;;;;;;;9.27;100.00;153739.06;4993650;28;20452;-77
2022/11/17 07:26:24;;;;;;;2.30;1.90;;;;;;;9.31;100.00;153750.75;4993664;28;20468;-77
2022/11/17 07:29:09;;;;;;;2.93;2.27;;;;;;;9.27;100.00;153739.06;4984724;28;20535;-77
2022/11/17 07:31:56;;;;;;;6.77;2.70;;;;;;;9.26;100.00;153737.81;4976008;28;20437;-77
2022/11/17 07:34:41;;;;;;;3.17;2.60;;;;;;;9.27;100.00;153739.06;4976130;28;20529;-77
2022/11/17 07:37:27;;;;;;;3.77;2.30;;;;;;;9.26;100.00;153737.81;4993302;28;20939;-77
2022/11/17 07:40:12;;;;;;;3.23;2.47;;;;;;;9.21;100.00;153723.59;4968266;28;20871;-77
2022/11/17 07:42:58;;;;;;;4.10;2.80;;;;;;;9.21;100.00;153724.88;4975199;28;20453;-77
2022/11/17 07:45:43;;;;;;;2.53;2.33;;;;;;;9.25;100.00;153735.22;4986959;28;20464;-76
2022/11/17 07:48:31;;;;;;;2.57;2.00;;;;;;;9.21;100.00;153723.59;4987663;28;20472;-77
2022/11/17 07:51:16;;;;;;;3.60;2.90;;;;;;;9.22;100.00;153727.44;4991571;28;20940;-76
2022/11/17 07:54:02;;;;;;;2.60;2.33;;;;;;;9.17;100.00;153715.81;4990766;28;20816;-76
2022/11/17 07:56:47;;;;;;;3.20;1.50;;;;;;;9.20;100.00;153722.28;4983579;28;20448;-77
2022/11/17 07:59:32;;;;;;;3.20;2.03;;;;;;;9.20;100.00;153722.28;4993781;28;20799;-77
2022/11/17 08:02:18;;;;;;;2.23;1.77;;;;;;;9.29;100.00;153745.59;4985688;28;20520;-77
2022/11/17 08:05:06;;;;;;;2.93;1.60;;;;;;;9.38;100.00;153768.84;4990979;28;20551;-77
2022/11/17 08:07:55;;;;;;;2.50;1.30;;;;;;;9.39;100.00;153771.44;4991526;28;20464;-77
2022/11/17 08:10:41;;;;;;;1.50;1.10;;;;;;;9.41;100.00;153775.31;4976803;28;20425;-76
2022/11/17 08:13:27;;;;;;;1.50;1.10;;;;;;;9.46;100.00;153789.53;4991540;28;20464;-76
2022/11/17 08:16:13;;;;;;;1.30;0.90;;;;;;;9.53;100.00;153807.63;4974912;28;20913;-77
2022/11/17 08:18:58;;;;;;;1.80;0.90;;;;;;;9.57;100.00;153818.00;5006802;28;20931;-77
2022/11/17 08:21:45;;;;;;;4.20;1.50;;;;;;;9.63;100.00;153833.53;4993702;28;20452;-77
2022/11/17 08:24:30;;;;;;;1.70;1.20;;;;;;;9.73;100.00;153858.09;4991351;28;20956;-77
2022/11/17 08:27:16;;;;;;;1.97;0.90;;;;;;;9.78;100.00;153872.34;4991471;28;20608;-77
2022/11/17 08:30:01;;;;;;;1.50;1.10;;;;;;;9.90;100.00;153900.81;4991949;28;20530;-77
2022/11/17 08:32:47;;;;;;;1.90;1.00;;;;;;;9.95;100.00;153913.75;4980653;28;20535;-77
2022/11/17 08:35:52;;;;;;;1.67;0.67;;;;;;;9.96;100.00;153916.31;4991304;28;20844;-77
2022/11/17 08:38:39;;;;;;;1.30;0.70;;;;;;;9.99;100.00;153924.09;4987541;28;20460;-77
2022/11/17 08:41:25;;;;;;;3.43;0.80;;;;;;;10.09;100.00;153949.97;4976566;28;20468;-77
2022/11/17 08:44:11;;;;;;;1.40;0.77;;;;;;;10.05;100.00;153939.63;4979407;28;20834;-77
2022/11/17 08:46:56;;;;;;;1.77;0.60;;;;;;;10.04;100.00;153937.03;4977085;28;20548;-77
2022/11/17 08:49:41;;;;;;;1.80;0.67;;;;;;;10.07;100.00;153944.81;4989084;28;20463;-77
2022/11/17 08:52:27;;;;;;;1.93;0.60;;;;;;;10.05;100.00;153939.63;4974103;28;20876;-77
2022/11/17 08:55:14;;;;;;;1.67;0.50;;;;;;;10.16;100.00;153968.16;4987860;28;20813;-77
2022/11/17 08:57:59;;;;;;;1.00;0.50;;;;;;;10.19;100.00;153975.94;4978162;28;20540;-77
2022/11/17 09:00:46;;;;;;;0.90;0.30;;;;;;;10.17;100.00;153970.72;4967375;28;20776;-77
2022/11/17 09:03:31;;;;;;;1.00;0.60;;;;;;;10.22;100.00;153984.97;4984087;28;20987;-77
2022/11/17 09:06:17;;;;;;;1.57;0.70;;;;;;;10.21;100.00;153981.09;4984943;28;20456;-77
2022/11/17 09:09:02;;;;;;;1.23;0.37;;;;;;;10.28;100.00;153999.22;4985573;28;20425;-77
2022/11/17 09:11:49;;;;;;;0.90;0.40;;;;;;;10.31;100.00;154007.00;4993340;28;20492;-77
2022/11/17 09:14:34;;;;;;;1.27;0.50;;;;;;;10.32;100.00;154010.91;4993271;28;20452;-77
2022/11/17 09:17:20;;;;;;;1.67;0.40;;;;;;;10.42;100.00;154034.16;4969415;28;20995;-77
2022/11/17 09:20:06;;;;;;;1.70;0.80;;;;;;;10.45;100.00;154041.94;4996637;28;20434;-77
2022/11/17 09:22:51;;;;;;;1.40;0.50;;;;;;;10.49;100.00;154053.59;4990961;28;20535;-77
2022/11/17 09:25:37;;;;;;;1.33;0.40;;;;;;;10.54;100.00;154065.28;4994561;28;20475;-77
2022/11/17 09:28:25;;;;;;;1.37;0.50;;;;;;;10.59;100.00;154079.47;4999278;28;20846;-77
2022/11/17 09:31:12;;;;;;;1.03;0.30;;;;;;;10.66;100.00;154097.63;4999697;28;20441;-77
2022/11/17 09:33:58;;;;;;;1.20;0.53;;;;;;;10.63;100.00;154089.84;4996696;28;20492;-77
2022/11/17 09:36:43;;;;;;;1.00;0.30;;;;;;;10.68;100.00;154102.78;4999910;28;20487;-77
2022/11/17 09:39:28;;;;;;;1.13;0.43;;;;;;;10.71;100.00;154110.56;4998981;28;20460;-77
2022/11/17 09:42:15;;;;;;;2.00;0.80;;;;;;;10.76;100.00;154123.53;4996823;28;20448;-77
2022/11/17 09:45:04;;;;;;;2.40;0.70;;;;;;;10.95;100.00;154172.75;4985717;28;20453;-77
2022/11/17 09:47:54;;;;;;;1.43;0.60;;;;;;;11.02;100.00;154189.56;4999201;28;20444;-77
2022/11/17 09:50:41;;;;;;;1.20;0.50;;;;;;;11.10;100.00;154208.97;4999345;28;20412;-77
2022/11/17 09:53:29;;;;;;;1.00;0.57;;;;;;;11.05;100.00;154196.03;4996601;28;20437;-77
2022/11/17 09:56:14;;;;;;;2.00;0.40;;;;;;;11.07;100.00;154201.25;4999753;28;20406;-77
2022/11/17 09:59:03;;;;;;;2.50;0.60;;;;;;;11.02;100.00;154190.84;4992595;28;20475;-77
2022/11/17 10:01:49;;;;;;;2.20;0.50;;;;;;;11.02;100.00;154190.84;4997917;28;20523;-77
2022/11/17 10:04:35;;;;;;;1.37;0.43;;;;;;;11.11;100.00;154211.59;4998937;28;20588;-77
2022/11/17 10:07:21;;;;;;;2.70;0.60;;;;;;;11.08;100.00;154203.81;4988156;28;20469;-77
2022/11/17 10:10:12;;;;;;;1.33;0.30;;;;;;;11.09;100.00;154206.41;4994254;28;20448;-76
2022/11/17 10:12:58;;;;;;;1.80;0.50;;;;;;;11.07;100.00;154202.50;4998878;28;20563;-78
2022/11/17 10:15:46;;;;;;;6.73;1.17;;;;;;;11.17;100.00;154227.16;4993460;28;20479;-78
2022/11/17 10:18:36;;;;;;;2.37;0.80;;;;;;;11.16;100.00;154225.84;4997803;28;20472;-78
2022/11/17 10:21:21;;;;;;;1.67;0.93;;;;;;;11.18;100.00;154229.72;4996997;28;20529;-78
2022/11/17 10:24:06;;;;;;;2.50;1.77;;;;;;;11.20;100.00;154236.19;4982626;28;20943;-78
2022/11/17 10:26:52;;;;;;;3.80;1.63;;;;;;;11.25;100.00;154247.88;4976494;28;20481;-78
2022/11/17 10:29:37;;;;;;;2.37;0.73;;;;;;;11.29;100.00;154258.22;4991572;28;21184;-78
2022/11/17 10:32:23;;;;;;;21.93;1.73;;;;;;;11.32;100.00;154266.00;4993030;28;20555;-78
2022/11/17 10:35:18;;;;;;;2.23;0.60;;;;;;;11.47;100.00;154304.84;4990917;28;20469;-78
2022/11/17 10:38:06;;;;;;;2.17;0.80;;;;;;;11.55;100.00;154326.88;4949539;28;20475;-78
2022/11/17 10:40:52;;;;;;;3.10;1.00;;;;;;;11.46;100.00;154303.53;4966062;28;21087;-78
2022/11/17 10:43:38;;;;;;;1.30;0.50;;;;;;;11.46;100.00;154302.28;4958444;28;20449;-78
2022/11/17 10:46:23;;;;;;;1.77;0.67;;;;;;;11.44;100.00;154297.06;4985835;28;20982;-78
2022/11/17 10:49:24;;;;;;;3.40;1.00;;;;;;;11.52;100.00;154317.81;4976283;28;20425;-78
2022/11/17 10:52:17;;;;;;;2.53;0.90;;;;;;;11.63;96.49;154347.63;4996154;28;20448;-78
2022/11/17 10:55:18;;;;;;;2.53;0.77;;;;;;;11.60;96.69;154338.53;4992322;28;20429;-78
2022/11/17 10:58:16;;;;;;;2.67;1.10;;;;;;;11.61;97.75;154341.16;4976670;28;20437;-78
2022/11/17 11:01:03;;;;;;;3.20;0.87;;;;;;;11.58;97.91;154333.38;4975961;28;20450;-78
2022/11/17 11:03:49;;;;;;;4.30;0.70;;;;;;;11.56;98.61;154328.19;5002233;28;20791;-78
2022/11/17 11:06:35;;;;;;;2.80;0.90;;;;;;;11.56;98.85;154328.19;4985711;28;20801;-78
2022/11/17 11:09:23;;;;;;;2.93;1.83;;;;;;;11.47;95.31;154304.84;4993693;28;20999;-78
2022/11/17 11:12:13;;;;;;;2.10;0.70;;;;;;;11.49;97.33;154310.06;4989418;28;20441;-78
2022/11/17 11:14:59;;;;;;;3.10;1.07;;;;;;;11.49;98.49;154310.06;4985148;28;20456;-78
2022/11/17 11:17:44;;;;;;;1.33;0.53;;;;;;;11.46;98.29;154302.28;4975808;28;20417;-78
2022/11/17 11:20:35;;;;;;;3.33;0.80;;;;;;;11.56;95.53;154328.19;4985929;28;20457;-78
2022/11/17 11:23:25;;;;;;;1.50;0.70;;;;;;;11.49;96.53;154310.06;4985992;28;20453;-78
2022/11/17 11:26:25;;;;;;;5.63;1.53;;;;;;;11.48;97.35;154307.47;4993654;28;20476;-78
2022/11/17 11:29:21;;;;;;;3.40;0.70;;;;;;;11.47;98.50;154304.84;4982086;28;20436;-78
2022/11/17 11:32:17;;;;;;;4.90;1.23;;;;;;;11.50;95.77;154313.94;4991514;28;20481;-78
2022/11/17 11:35:20;;;;;;;2.17;1.00;;;;;;;11.47;98.19;154306.16;4984417;28;20454;-78
2022/11/17 11:38:16;;;;;;;1.90;0.90;;;;;;;11.42;97.91;154293.19;4983276;28;20520;-78
2022/11/17 11:41:12;;;;;;;3.03;1.57;;;;;;;11.36;97.88;154276.34;4993439;28;20501;-78
2022/11/17 11:44:13;;;;;;;4.33;1.93;;;;;;;11.43;96.98;154295.81;4979019;28;20539;-78
2022/11/17 11:47:03;;;;;;;3.53;1.30;;;;;;;11.46;99.27;154302.28;4989845;28;20464;-78
2022/11/17 11:49:52;;;;;;;7.20;1.20;;;;;;;11.50;98.93;154312.63;4993586;28;20457;-78
2022/11/17 11:52:40;;;;;;;2.57;0.87;;;;;;;11.49;97.39;154311.31;4992485;28;20544;-78
2022/11/17 11:55:28;;;;;;;2.37;0.93;;;;;;;11.55;100.00;154325.59;4988379;28;20445;-77
2022/11/17 11:58:17;;;;;;;2.80;1.20;;;;;;;11.52;98.29;154317.81;4992879;28;20924;-78
2022/11/17 12:01:06;;;;;;;2.07;0.73;;;;;;;11.58;99.33;154333.38;4993676;28;20519;-88
2022/11/17 12:03:58;;;;;;;2.10;0.90;;;;;;;11.61;95.31;154341.16;4991671;28;20460;-88
2022/11/17 12:06:52;;;;;;;2.90;0.87;;;;;;;11.64;95.93;154348.94;4983212;28;20823;-88
2022/11/17 12:09:59;;;;;;;5.70;1.80;;;;;;;11.67;95.48;154356.72;4993038;28;20456;-88
2022/11/17 12:12:46;;;;;;;2.90;1.27;;;;;;;11.68;96.63;154357.97;4991904;28;20564;-88
2022/11/17 12:15:36;;;;;;;5.50;1.30;;;;;;;11.67;97.16;154356.72;4989751;28;20456;-78
2022/11/17 12:18:32;;;;;;;2.60;1.10;;;;;;;11.71;94.36;154365.81;4982824;28;20452;-78
2022/11/17 12:21:21;;;;;;;5.93;1.00;;;;;;;11.67;96.11;154356.72;4988956;28;20489;-78
2022/11/17 12:24:15;;;;;;;2.80;1.10;;;;;;;11.67;96.28;154356.72;4984634;28;20589;-78
2022/11/17 12:27:30;;;;;;;3.23;1.40;;;;;;;11.61;94.81;154342.44;4981119;28;20516;-78
2022/11/17 12:30:51;;;;;;;2.80;1.03;;;;;;;11.63;96.37;154346.31;4980663;28;20552;-78
2022/11/17 12:34:15;;;;;;;5.13;1.47;;;;;;;11.60;95.93;154338.53;4973416;28;20465;-78
2022/11/17 12:37:20;;;;;;;2.27;1.40;;;;;;;11.59;93.97;154335.97;4985855;28;20437;-78
2022/11/17 12:40:08;;;;;;;1.80;1.37;;;;;;;11.55;94.64;154326.88;4974075;28;20446;-78
2022/11/17 12:43:20;;;;;;;4.70;1.60;;;;;;;11.66;95.69;154354.09;4977171;28;20460;-78
2022/11/17 12:46:24;;;;;;;2.30;1.07;;;;;;;11.71;93.94;154367.09;4987957;28;20518;-78
2022/11/17 12:49:19;;;;;;;4.67;1.57;;;;;;;11.73;94.79;154372.28;4974516;28;20446;-78
2022/11/17 12:52:06;;;;;;;7.10;2.53;;;;;;;11.76;95.82;154380.06;4992947;28;20420;-78
2022/11/17 12:54:56;;;;;;;4.10;1.13;;;;;;;11.76;94.76;154380.06;4990740;28;20481;-78
2022/11/17 12:57:42;;;;;;;3.30;1.30;;;;;;;11.82;93.86;154394.31;4988512;28;20441;-78
2022/11/17 13:00:29;;;;;;;6.63;1.37;;;;;;;11.82;94.64;154394.31;4978132;28;20464;-77
2022/11/17 13:03:16;;;;;;;2.97;1.43;;;;;;;11.82;93.54;154394.31;4986991;28;20811;-78
2022/11/17 13:06:11;;;;;;;2.67;1.10;;;;;;;11.90;92.62;154415.06;4987716;28;20493;-78
2022/11/17 13:08:58;;;;;;;3.50;1.33;;;;;;;11.82;93.52;154395.63;4977471;28;20769;-78
2022/11/17 13:11:58;;;;;;;5.13;1.20;;;;;;;11.96;95.20;154431.94;4983946;28;20632;-78
2022/11/17 13:14:52;;;;;;;2.73;1.20;;;;;;;11.93;91.43;154424.16;4976260;28;20484;-78
2022/11/17 13:17:41;;;;;;;4.67;1.70;;;;;;;11.97;93.36;154434.50;4988145;28;21043;-78
2022/11/17 13:20:29;;;;;;;5.90;2.10;;;;;;;11.98;90.99;154437.09;4992647;28;20440;-77
2022/11/17 13:23:20;;;;;;;4.10;1.70;;;;;;;11.93;90.66;154424.16;4978706;28;20438;-77
2022/11/17 13:26:10;;;;;;;5.20;1.83;;;;;;;12.01;88.34;154443.59;4983757;28;20441;-78
2022/11/17 13:29:03;;;;;;;4.40;1.43;;;;;;;11.95;91.59;154429.31;4991989;28;20912;-78